This is the latest recevied weather packets stored in our database for station/object LY3FF-10. If no packets are shown the sender has not sent any weather packets the latest 10 day(s).
| Time | Temp. | Humidity | Pressure | Rain* | Wind** | Luminosity | Snow |
|---|---|---|---|---|---|---|---|
| 1787512225 | 13.89° C | 86% | 994.4 hPa | - | - | - | - |
| 1787511455 | 13.89° C | 86% | 994.4 hPa | - | - | - | - |
| 1787510710 | 13.89° C | 86% | 994.3 hPa | - | - | - | - |
| 1787509824 | 13.89° C | 85% | 994.4 hPa | - | - | - | - |
| 1787509084 | 14.44° C | 83% | 994.4 hPa | - | - | - | - |
| 1787508195 | 14.44° C | 83% | 994.3 hPa | - | - | - | - |
| 1787507294 | 15° C | 83% | 994.1 hPa | - | - | - | - |
| 1787506440 | 15.56° C | 82% | 994 hPa | - | - | - | - |
| 1787505624 | 15.56° C | 81% | 993.9 hPa | - | - | - | - |
| 1787504884 | 16.11° C | 78% | 993.8 hPa | - | - | - | - |
| 1787504044 | 16.11° C | 77% | 994 hPa | - | - | - | - |
| 1787503304 | 16.67° C | 74% | 993.8 hPa | - | - | - | - |
| 1787502490 | 17.22° C | 71% | 993.6 hPa | - | - | - | - |
| 1787501735 | 17.78° C | 69% | 993.4 hPa | - | - | - | - |
| 1787500900 | 18.89° C | 65% | 993.3 hPa | - | - | - | - |
| 1787500129 | 19.44° C | 62% | 993.4 hPa | - | - | - | - |
| 1787499405 | 19.44° C | 65% | 993.3 hPa | - | - | - | - |
| 1787498655 | 20° C | 68% | 993.2 hPa | - | - | - | - |
| 1787497880 | 19.44° C | 71% | 993 hPa | - | - | - | - |
| 1787497066 | 19.44° C | 72% | 993 hPa | - | - | - | - |
| 1787496320 | 18.89° C | 72% | 992.8 hPa | - | - | - | - |
| 1787495570 | 18.33° C | 74% | 992.8 hPa | - | - | - | - |
| 1787494760 | 19.44° C | 62% | 992.4 hPa | - | - | - | - |
| 1787493920 | 20° C | 64% | 992.4 hPa | - | - | - | - |
| 1787493178 | 18.89° C | 68% | 992.4 hPa | - | - | - | - |
* Rain since midnight (hover to see other rain measurements)
** Current wind speed in m/s (hover to see current wind gust speed)